sensor_id;sensor_type;location;lat;lon;timestamp;P1;durP1;ratioP1;P2;durP2;ratioP2
49610;SDS011;35515;48.766;9.176;2023-04-06T00:00:16;15.25;;;8.02;;
49610;SDS011;35515;48.766;9.176;2023-04-06T00:02:42;10.35;;;8.15;;
49610;SDS011;35515;48.766;9.176;2023-04-06T00:05:10;10.43;;;7.90;;
49610;SDS011;35515;48.766;9.176;2023-04-06T00:07:37;11.43;;;8.68;;
49610;SDS011;35515;48.766;9.176;2023-04-06T00:10:04;9.77;;;7.93;;
49610;SDS011;35515;48.766;9.176;2023-04-06T00:12:31;13.35;;;8.18;;
49610;SDS011;35515;48.766;9.176;2023-04-06T00:14:58;11.15;;;8.32;;
49610;SDS011;35515;48.766;9.176;2023-04-06T00:17:26;10.48;;;8.23;;
49610;SDS011;35515;48.766;9.176;2023-04-06T00:19:53;10.82;;;7.60;;
49610;SDS011;35515;48.766;9.176;2023-04-06T00:22:21;12.65;;;8.93;;
49610;SDS011;35515;48.766;9.176;2023-04-06T00:24:47;11.45;;;8.50;;
49610;SDS011;35515;48.766;9.176;2023-04-06T00:27:14;13.75;;;8.45;;
49610;SDS011;35515;48.766;9.176;2023-04-06T00:29:41;11.48;;;8.88;;
49610;SDS011;35515;48.766;9.176;2023-04-06T00:32:07;13.15;;;9.05;;
49610;SDS011;35515;48.766;9.176;2023-04-06T00:34:34;15.10;;;8.90;;
49610;SDS011;35515;48.766;9.176;2023-04-06T00:37:01;11.85;;;9.27;;
49610;SDS011;35515;48.766;9.176;2023-04-06T00:39:29;11.52;;;8.70;;
49610;SDS011;35515;48.766;9.176;2023-04-06T00:41:55;11.60;;;9.02;;
49610;SDS011;35515;48.766;9.176;2023-04-06T00:44:22;12.85;;;8.95;;
49610;SDS011;35515;48.766;9.176;2023-04-06T00:46:50;11.98;;;8.68;;
49610;SDS011;35515;48.766;9.176;2023-04-06T00:49:17;11.57;;;8.88;;
49610;SDS011;35515;48.766;9.176;2023-04-06T00:51:43;12.68;;;8.93;;
49610;SDS011;35515;48.766;9.176;2023-04-06T00:54:10;13.13;;;9.10;;
49610;SDS011;35515;48.766;9.176;2023-04-06T00:56:38;12.23;;;8.85;;
49610;SDS011;35515;48.766;9.176;2023-04-06T00:59:05;10.20;;;8.32;;
49610;SDS011;35515;48.766;9.176;2023-04-06T01:01:31;11.45;;;7.70;;
49610;SDS011;35515;48.766;9.176;2023-04-06T01:03:58;11.20;;;8.52;;
49610;SDS011;35515;48.766;9.176;2023-04-06T01:06:25;11.63;;;8.43;;
49610;SDS011;35515;48.766;9.176;2023-04-06T01:08:51;12.38;;;8.48;;
49610;SDS011;35515;48.766;9.176;2023-04-06T01:11:18;14.40;;;8.55;;
49610;SDS011;35515;48.766;9.176;2023-04-06T01:13:46;10.73;;;8.13;;
49610;SDS011;35515;48.766;9.176;2023-04-06T01:16:13;10.52;;;8.15;;
49610;SDS011;35515;48.766;9.176;2023-04-06T01:18:40;15.07;;;9.18;;
49610;SDS011;35515;48.766;9.176;2023-04-06T01:21:07;15.40;;;8.88;;
49610;SDS011;35515;48.766;9.176;2023-04-06T01:23:36;13.40;;;9.02;;
49610;SDS011;35515;48.766;9.176;2023-04-06T01:26:03;15.48;;;8.73;;
49610;SDS011;35515;48.766;9.176;2023-04-06T01:28:29;10.43;;;8.15;;
49610;SDS011;35515;48.766;9.176;2023-04-06T01:30:56;10.73;;;8.70;;
49610;SDS011;35515;48.766;9.176;2023-04-06T01:33:23;10.30;;;7.95;;
49610;SDS011;35515;48.766;9.176;2023-04-06T01:35:49;13.13;;;7.97;;
49610;SDS011;35515;48.766;9.176;2023-04-06T01:38:16;9.88;;;7.72;;
49610;SDS011;35515;48.766;9.176;2023-04-06T01:40:44;12.02;;;8.55;;
49610;SDS011;35515;48.766;9.176;2023-04-06T01:43:11;12.77;;;9.70;;
49610;SDS011;35515;48.766;9.176;2023-04-06T01:45:37;11.63;;;9.07;;
49610;SDS011;35515;48.766;9.176;2023-04-06T01:48:04;13.27;;;9.20;;
49610;SDS011;35515;48.766;9.176;2023-04-06T01:50:31;13.98;;;8.82;;
49610;SDS011;35515;48.766;9.176;2023-04-06T01:52:58;13.07;;;9.25;;
49610;SDS011;35515;48.766;9.176;2023-04-06T01:55:24;10.00;;;8.48;;
49610;SDS011;35515;48.766;9.176;2023-04-06T01:57:52;12.32;;;8.57;;
49610;SDS011;35515;48.766;9.176;2023-04-06T02:00:19;11.20;;;7.85;;
49610;SDS011;35515;48.766;9.176;2023-04-06T02:02:46;11.75;;;8.40;;
49610;SDS011;35515;48.766;9.176;2023-04-06T02:05:12;11.63;;;8.30;;
49610;SDS011;35515;48.766;9.176;2023-04-06T02:07:39;13.02;;;9.00;;
49610;SDS011;35515;48.766;9.176;2023-04-06T02:10:10;11.60;;;8.82;;
49610;SDS011;35515;48.766;9.176;2023-04-06T02:12:38;11.32;;;8.48;;
49610;SDS011;35515;48.766;9.176;2023-04-06T02:15:06;12.70;;;9.23;;
49610;SDS011;35515;48.766;9.176;2023-04-06T02:17:34;14.38;;;9.20;;
49610;SDS011;35515;48.766;9.176;2023-04-06T02:20:00;10.80;;;7.80;;
49610;SDS011;35515;48.766;9.176;2023-04-06T02:22:27;15.75;;;8.90;;
49610;SDS011;35515;48.766;9.176;2023-04-06T02:24:53;13.60;;;8.48;;
49610;SDS011;35515;48.766;9.176;2023-04-06T02:27:20;16.75;;;9.75;;
49610;SDS011;35515;48.766;9.176;2023-04-06T02:29:47;12.73;;;9.07;;
49610;SDS011;35515;48.766;9.176;2023-04-06T02:32:14;12.82;;;9.02;;
49610;SDS011;35515;48.766;9.176;2023-04-06T02:34:41;12.02;;;8.18;;
49610;SDS011;35515;48.766;9.176;2023-04-06T02:37:08;12.32;;;9.27;;
49610;SDS011;35515;48.766;9.176;2023-04-06T02:39:34;11.57;;;9.02;;
49610;SDS011;35515;48.766;9.176;2023-04-06T02:42:01;12.45;;;8.82;;
49610;SDS011;35515;48.766;9.176;2023-04-06T02:44:27;11.45;;;8.90;;
49610;SDS011;35515;48.766;9.176;2023-04-06T02:46:54;12.00;;;8.80;;
49610;SDS011;35515;48.766;9.176;2023-04-06T02:49:22;11.02;;;9.25;;
49610;SDS011;35515;48.766;9.176;2023-04-06T02:51:49;13.90;;;9.35;;
49610;SDS011;35515;48.766;9.176;2023-04-06T02:54:15;12.43;;;8.90;;
49610;SDS011;35515;48.766;9.176;2023-04-06T02:56:42;13.23;;;8.02;;
49610;SDS011;35515;48.766;9.176;2023-04-06T02:59:09;14.65;;;9.65;;
49610;SDS011;35515;48.766;9.176;2023-04-06T03:01:35;12.05;;;8.48;;
49610;SDS011;35515;48.766;9.176;2023-04-06T03:04:02;12.43;;;8.85;;
49610;SDS011;35515;48.766;9.176;2023-04-06T03:06:30;15.07;;;9.02;;
49610;SDS011;35515;48.766;9.176;2023-04-06T03:08:57;14.88;;;9.02;;
49610;SDS011;35515;48.766;9.176;2023-04-06T03:11:23;14.95;;;9.43;;
49610;SDS011;35515;48.766;9.176;2023-04-06T03:13:51;11.75;;;8.77;;
49610;SDS011;35515;48.766;9.176;2023-04-06T03:16:18;13.02;;;8.98;;
49610;SDS011;35515;48.766;9.176;2023-04-06T03:18:44;13.98;;;9.38;;
49610;SDS011;35515;48.766;9.176;2023-04-06T03:21:12;13.18;;;10.05;;
49610;SDS011;35515;48.766;9.176;2023-04-06T03:23:41;15.90;;;8.93;;
49610;SDS011;35515;48.766;9.176;2023-04-06T03:26:08;16.13;;;9.65;;
49610;SDS011;35515;48.766;9.176;2023-04-06T03:28:35;12.05;;;9.10;;
49610;SDS011;35515;48.766;9.176;2023-04-06T03:31:01;16.95;;;9.52;;
49610;SDS011;35515;48.766;9.176;2023-04-06T03:33:28;13.23;;;9.90;;
49610;SDS011;35515;48.766;9.176;2023-04-06T03:35:54;13.07;;;9.30;;
49610;SDS011;35515;48.766;9.176;2023-04-06T03:38:21;14.70;;;10.18;;
49610;SDS011;35515;48.766;9.176;2023-04-06T03:40:49;12.73;;;9.05;;
49610;SDS011;35515;48.766;9.176;2023-04-06T03:43:16;14.73;;;9.60;;
49610;SDS011;35515;48.766;9.176;2023-04-06T03:45:42;12.98;;;9.55;;
49610;SDS011;35515;48.766;9.176;2023-04-06T03:48:09;14.07;;;9.85;;
49610;SDS011;35515;48.766;9.176;2023-04-06T03:50:35;14.10;;;9.48;;
49610;SDS011;35515;48.766;9.176;2023-04-06T03:53:02;12.02;;;9.93;;
49610;SDS011;35515;48.766;9.176;2023-04-06T03:55:29;13.40;;;9.90;;
49610;SDS011;35515;48.766;9.176;2023-04-06T03:57:57;14.07;;;10.13;;
49610;SDS011;35515;48.766;9.176;2023-04-06T04:00:23;13.63;;;10.13;;
49610;SDS011;35515;48.766;9.176;2023-04-06T04:02:50;19.13;;;10.68;;
49610;SDS011;35515;48.766;9.176;2023-04-06T04:05:17;14.02;;;9.13;;
49610;SDS011;35515;48.766;9.176;2023-04-06T04:07:43;14.93;;;9.68;;
49610;SDS011;35515;48.766;9.176;2023-04-06T04:10:10;12.60;;;9.60;;
49610;SDS011;35515;48.766;9.176;2023-04-06T04:12:37;12.27;;;9.48;;
49610;SDS011;35515;48.766;9.176;2023-04-06T04:15:05;13.98;;;10.30;;
49610;SDS011;35515;48.766;9.176;2023-04-06T04:17:32;12.05;;;9.68;;
49610;SDS011;35515;48.766;9.176;2023-04-06T04:19:59;14.23;;;9.98;;
49610;SDS011;35515;48.766;9.176;2023-04-06T04:22:25;13.73;;;9.88;;
49610;SDS011;35515;48.766;9.176;2023-04-06T04:24:53;16.52;;;10.35;;
49610;SDS011;35515;48.766;9.176;2023-04-06T04:27:20;12.77;;;9.60;;
49610;SDS011;35515;48.766;9.176;2023-04-06T04:29:46;14.95;;;10.30;;
49610;SDS011;35515;48.766;9.176;2023-04-06T04:32:14;13.00;;;9.75;;
49610;SDS011;35515;48.766;9.176;2023-04-06T04:34:41;15.15;;;10.70;;
49610;SDS011;35515;48.766;9.176;2023-04-06T04:37:08;14.73;;;10.02;;
49610;SDS011;35515;48.766;9.176;2023-04-06T04:39:35;15.02;;;10.02;;
49610;SDS011;35515;48.766;9.176;2023-04-06T04:42:01;15.75;;;10.15;;
49610;SDS011;35515;48.766;9.176;2023-04-06T04:44:28;13.05;;;9.80;;
49610;SDS011;35515;48.766;9.176;2023-04-06T04:46:54;17.52;;;10.50;;
49610;SDS011;35515;48.766;9.176;2023-04-06T04:49:23;19.10;;;10.25;;
49610;SDS011;35515;48.766;9.176;2023-04-06T04:51:50;14.65;;;10.35;;
49610;SDS011;35515;48.766;9.176;2023-04-06T04:54:17;14.52;;;10.25;;
49610;SDS011;35515;48.766;9.176;2023-04-06T04:56:44;18.60;;;11.02;;
49610;SDS011;35515;48.766;9.176;2023-04-06T04:59:11;15.23;;;10.43;;
49610;SDS011;35515;48.766;9.176;2023-04-06T05:01:37;16.35;;;10.90;;
49610;SDS011;35515;48.766;9.176;2023-04-06T05:04:04;17.88;;;10.93;;
49610;SDS011;35515;48.766;9.176;2023-04-06T05:06:32;14.43;;;10.38;;
49610;SDS011;35515;48.766;9.176;2023-04-06T05:08:59;14.60;;;10.52;;
49610;SDS011;35515;48.766;9.176;2023-04-06T05:11:25;14.15;;;10.43;;
49610;SDS011;35515;48.766;9.176;2023-04-06T05:13:53;19.08;;;11.60;;
49610;SDS011;35515;48.766;9.176;2023-04-06T05:16:19;18.00;;;11.00;;
49610;SDS011;35515;48.766;9.176;2023-04-06T05:18:47;18.60;;;11.73;;
49610;SDS011;35515;48.766;9.176;2023-04-06T05:21:13;15.52;;;10.50;;
49610;SDS011;35515;48.766;9.176;2023-04-06T05:23:41;15.82;;;10.90;;
49610;SDS011;35515;48.766;9.176;2023-04-06T05:26:08;16.60;;;10.80;;
49610;SDS011;35515;48.766;9.176;2023-04-06T05:28:35;19.38;;;11.23;;
49610;SDS011;35515;48.766;9.176;2023-04-06T05:31:01;14.70;;;11.23;;
49610;SDS011;35515;48.766;9.176;2023-04-06T05:33:28;13.15;;;10.43;;
49610;SDS011;35515;48.766;9.176;2023-04-06T05:35:56;17.40;;;12.38;;
49610;SDS011;35515;48.766;9.176;2023-04-06T05:38:22;15.18;;;11.40;;
49610;SDS011;35515;48.766;9.176;2023-04-06T05:40:50;14.85;;;9.88;;
49610;SDS011;35515;48.766;9.176;2023-04-06T05:43:17;17.55;;;11.70;;
49610;SDS011;35515;48.766;9.176;2023-04-06T05:45:44;19.67;;;12.32;;
49610;SDS011;35515;48.766;9.176;2023-04-06T05:48:10;18.20;;;11.88;;
49610;SDS011;35515;48.766;9.176;2023-04-06T05:50:37;17.40;;;11.32;;
49610;SDS011;35515;48.766;9.176;2023-04-06T05:53:04;15.57;;;10.60;;
49610;SDS011;35515;48.766;9.176;2023-04-06T05:55:30;17.02;;;11.05;;
49610;SDS011;35515;48.766;9.176;2023-04-06T05:57:58;17.60;;;11.48;;
49610;SDS011;35515;48.766;9.176;2023-04-06T06:00:25;15.68;;;10.75;;
49610;SDS011;35515;48.766;9.176;2023-04-06T06:02:51;17.13;;;11.77;;
49610;SDS011;35515;48.766;9.176;2023-04-06T06:05:18;17.73;;;10.73;;
49610;SDS011;35515;48.766;9.176;2023-04-06T06:07:45;17.27;;;11.45;;
49610;SDS011;35515;48.766;9.176;2023-04-06T06:10:11;16.98;;;11.40;;
49610;SDS011;35515;48.766;9.176;2023-04-06T06:12:38;16.85;;;11.90;;
49610;SDS011;35515;48.766;9.176;2023-04-06T06:15:06;19.25;;;11.85;;
49610;SDS011;35515;48.766;9.176;2023-04-06T06:17:34;17.60;;;11.88;;
49610;SDS011;35515;48.766;9.176;2023-04-06T06:20:00;17.20;;;12.10;;
49610;SDS011;35515;48.766;9.176;2023-04-06T06:22:27;19.70;;;11.48;;
49610;SDS011;35515;48.766;9.176;2023-04-06T06:24:54;17.25;;;12.55;;
49610;SDS011;35515;48.766;9.176;2023-04-06T06:27:20;19.42;;;12.10;;
49610;SDS011;35515;48.766;9.176;2023-04-06T06:29:47;15.57;;;11.82;;
49610;SDS011;35515;48.766;9.176;2023-04-06T06:32:15;18.67;;;11.45;;
49610;SDS011;35515;48.766;9.176;2023-04-06T06:34:42;14.77;;;11.13;;
49610;SDS011;35515;48.766;9.176;2023-04-06T06:37:08;19.60;;;11.77;;
49610;SDS011;35515;48.766;9.176;2023-04-06T06:39:35;16.63;;;11.25;;
49610;SDS011;35515;48.766;9.176;2023-04-06T06:42:02;21.90;;;12.35;;
49610;SDS011;35515;48.766;9.176;2023-04-06T06:44:28;16.70;;;11.88;;
49610;SDS011;35515;48.766;9.176;2023-04-06T06:46:55;16.98;;;10.90;;
49610;SDS011;35515;48.766;9.176;2023-04-06T06:49:23;19.05;;;11.75;;
49610;SDS011;35515;48.766;9.176;2023-04-06T06:51:50;15.10;;;11.90;;
49610;SDS011;35515;48.766;9.176;2023-04-06T06:54:16;15.25;;;11.75;;
49610;SDS011;35515;48.766;9.176;2023-04-06T06:56:43;16.80;;;11.80;;
49610;SDS011;35515;48.766;9.176;2023-04-06T06:59:09;19.27;;;12.48;;
49610;SDS011;35515;48.766;9.176;2023-04-06T07:01:36;19.20;;;13.55;;
49610;SDS011;35515;48.766;9.176;2023-04-06T07:04:03;22.05;;;14.35;;
49610;SDS011;35515;48.766;9.176;2023-04-06T07:06:31;19.33;;;13.73;;
49610;SDS011;35515;48.766;9.176;2023-04-06T07:08:58;19.77;;;12.15;;
49610;SDS011;35515;48.766;9.176;2023-04-06T07:11:24;18.88;;;11.90;;
49610;SDS011;35515;48.766;9.176;2023-04-06T07:13:51;22.52;;;11.70;;
49610;SDS011;35515;48.766;9.176;2023-04-06T07:16:18;14.95;;;10.93;;
49610;SDS011;35515;48.766;9.176;2023-04-06T07:18:44;15.43;;;12.05;;
49610;SDS011;35515;48.766;9.176;2023-04-06T07:21:11;18.55;;;12.40;;
49610;SDS011;35515;48.766;9.176;2023-04-06T07:23:39;19.85;;;13.30;;
49610;SDS011;35515;48.766;9.176;2023-04-06T07:26:06;19.30;;;13.10;;
49610;SDS011;35515;48.766;9.176;2023-04-06T07:28:32;21.48;;;13.50;;
49610;SDS011;35515;48.766;9.176;2023-04-06T07:30:59;21.17;;;13.32;;
49610;SDS011;35515;48.766;9.176;2023-04-06T07:33:26;20.52;;;14.32;;
49610;SDS011;35515;48.766;9.176;2023-04-06T07:35:54;23.38;;;13.82;;
49610;SDS011;35515;48.766;9.176;2023-04-06T07:38:21;19.20;;;14.27;;
49610;SDS011;35515;48.766;9.176;2023-04-06T07:40:49;21.10;;;13.65;;
49610;SDS011;35515;48.766;9.176;2023-04-06T07:43:16;24.55;;;14.55;;
49610;SDS011;35515;48.766;9.176;2023-04-06T07:45:43;20.00;;;13.82;;
49610;SDS011;35515;48.766;9.176;2023-04-06T07:48:09;27.15;;;14.13;;
49610;SDS011;35515;48.766;9.176;2023-04-06T07:50:36;23.50;;;13.90;;
49610;SDS011;35515;48.766;9.176;2023-04-06T07:53:03;19.02;;;13.27;;
49610;SDS011;35515;48.766;9.176;2023-04-06T07:55:30;18.70;;;13.65;;
49610;SDS011;35515;48.766;9.176;2023-04-06T07:57:58;20.02;;;12.90;;
49610;SDS011;35515;48.766;9.176;2023-04-06T08:00:24;19.67;;;13.48;;
49610;SDS011;35515;48.766;9.176;2023-04-06T08:02:51;21.67;;;14.38;;
49610;SDS011;35515;48.766;9.176;2023-04-06T08:05:18;19.55;;;13.25;;
49610;SDS011;35515;48.766;9.176;2023-04-06T08:07:44;24.77;;;13.63;;
49610;SDS011;35515;48.766;9.176;2023-04-06T08:10:11;19.40;;;13.30;;
49610;SDS011;35515;48.766;9.176;2023-04-06T08:12:38;21.80;;;13.68;;
49610;SDS011;35515;48.766;9.176;2023-04-06T08:15:06;23.38;;;13.48;;
49610;SDS011;35515;48.766;9.176;2023-04-06T08:17:33;21.05;;;13.75;;
49610;SDS011;35515;48.766;9.176;2023-04-06T08:20:00;19.73;;;12.40;;
49610;SDS011;35515;48.766;9.176;2023-04-06T08:22:28;19.95;;;12.95;;
49610;SDS011;35515;48.766;9.176;2023-04-06T08:24:55;22.88;;;13.05;;
49610;SDS011;35515;48.766;9.176;2023-04-06T08:27:21;22.55;;;13.43;;
49610;SDS011;35515;48.766;9.176;2023-04-06T08:29:49;18.15;;;12.77;;
49610;SDS011;35515;48.766;9.176;2023-04-06T08:32:17;21.52;;;13.07;;
49610;SDS011;35515;48.766;9.176;2023-04-06T08:34:44;22.90;;;14.25;;
49610;SDS011;35515;48.766;9.176;2023-04-06T08:37:11;19.02;;;13.13;;
49610;SDS011;35515;48.766;9.176;2023-04-06T08:39:37;20.70;;;13.75;;
49610;SDS011;35515;48.766;9.176;2023-04-06T08:42:04;18.05;;;12.88;;
49610;SDS011;35515;48.766;9.176;2023-04-06T08:44:36;22.17;;;12.50;;
49610;SDS011;35515;48.766;9.176;2023-04-06T08:47:04;19.92;;;12.63;;
49610;SDS011;35515;48.766;9.176;2023-04-06T08:49:32;19.70;;;13.15;;
49610;SDS011;35515;48.766;9.176;2023-04-06T08:52:00;19.55;;;12.57;;
49610;SDS011;35515;48.766;9.176;2023-04-06T08:54:27;17.05;;;11.90;;
49610;SDS011;35515;48.766;9.176;2023-04-06T08:56:54;21.00;;;13.00;;
49610;SDS011;35515;48.766;9.176;2023-04-06T08:59:22;17.88;;;12.95;;
49610;SDS011;35515;48.766;9.176;2023-04-06T09:01:50;17.38;;;12.45;;
49610;SDS011;35515;48.766;9.176;2023-04-06T09:04:18;16.33;;;12.25;;
49610;SDS011;35515;48.766;9.176;2023-04-06T09:06:46;16.27;;;10.52;;
49610;SDS011;35515;48.766;9.176;2023-04-06T09:09:15;15.45;;;10.38;;
49610;SDS011;35515;48.766;9.176;2023-04-06T09:11:45;15.43;;;11.00;;
49610;SDS011;35515;48.766;9.176;2023-04-06T09:14:12;17.42;;;11.68;;
49610;SDS011;35515;48.766;9.176;2023-04-06T09:16:40;17.65;;;11.38;;
49610;SDS011;35515;48.766;9.176;2023-04-06T09:19:07;19.50;;;11.60;;
49610;SDS011;35515;48.766;9.176;2023-04-06T09:21:34;17.02;;;11.52;;
49610;SDS011;35515;48.766;9.176;2023-04-06T09:24:03;17.73;;;11.02;;
49610;SDS011;35515;48.766;9.176;2023-04-06T09:26:30;15.82;;;11.20;;
49610;SDS011;35515;48.766;9.176;2023-04-06T09:28:58;14.07;;;10.80;;
49610;SDS011;35515;48.766;9.176;2023-04-06T09:31:26;14.35;;;10.38;;
49610;SDS011;35515;48.766;9.176;2023-04-06T09:33:54;13.80;;;10.65;;
49610;SDS011;35515;48.766;9.176;2023-04-06T09:36:29;15.93;;;10.88;;
49610;SDS011;35515;48.766;9.176;2023-04-06T09:38:57;18.58;;;11.15;;
49610;SDS011;35515;48.766;9.176;2023-04-06T09:41:27;17.23;;;10.07;;
49610;SDS011;35515;48.766;9.176;2023-04-06T09:44:01;14.90;;;10.38;;
49610;SDS011;35515;48.766;9.176;2023-04-06T09:46:30;12.57;;;9.50;;
49610;SDS011;35515;48.766;9.176;2023-04-06T09:48:58;15.02;;;9.13;;
49610;SDS011;35515;48.766;9.176;2023-04-06T09:51:25;18.77;;;10.98;;
49610;SDS011;35515;48.766;9.176;2023-04-06T09:53:56;18.23;;;12.52;;
49610;SDS011;35515;48.766;9.176;2023-04-06T09:56:27;13.43;;;9.45;;
49610;SDS011;35515;48.766;9.176;2023-04-06T09:59:01;12.68;;;9.15;;
49610;SDS011;35515;48.766;9.176;2023-04-06T10:01:32;12.70;;;8.93;;
49610;SDS011;35515;48.766;9.176;2023-04-06T10:04:04;12.90;;;8.68;;
49610;SDS011;35515;48.766;9.176;2023-04-06T10:06:39;13.65;;;8.48;;
49610;SDS011;35515;48.766;9.176;2023-04-06T10:09:06;11.30;;;8.82;;
49610;SDS011;35515;48.766;9.176;2023-04-06T10:11:35;11.27;;;8.13;;
49610;SDS011;35515;48.766;9.176;2023-04-06T10:14:03;11.40;;;7.85;;
49610;SDS011;35515;48.766;9.176;2023-04-06T10:16:30;11.23;;;8.77;;
49610;SDS011;35515;48.766;9.176;2023-04-06T10:18:58;10.98;;;7.97;;
49610;SDS011;35515;48.766;9.176;2023-04-06T10:21:31;11.98;;;8.75;;
49610;SDS011;35515;48.766;9.176;2023-04-06T10:23:59;11.77;;;8.27;;
49610;SDS011;35515;48.766;9.176;2023-04-06T10:26:27;15.20;;;8.00;;
49610;SDS011;35515;48.766;9.176;2023-04-06T10:28:55;11.43;;;8.20;;
49610;SDS011;35515;48.766;9.176;2023-04-06T10:31:29;10.85;;;7.60;;
49610;SDS011;35515;48.766;9.176;2023-04-06T10:33:56;11.75;;;8.10;;
49610;SDS011;35515;48.766;9.176;2023-04-06T10:36:24;11.95;;;7.47;;
49610;SDS011;35515;48.766;9.176;2023-04-06T10:38:56;9.48;;;7.20;;
49610;SDS011;35515;48.766;9.176;2023-04-06T10:41:24;10.18;;;7.82;;
49610;SDS011;35515;48.766;9.176;2023-04-06T10:43:59;12.63;;;8.55;;
49610;SDS011;35515;48.766;9.176;2023-04-06T10:46:26;11.52;;;7.47;;
49610;SDS011;35515;48.766;9.176;2023-04-06T10:48:53;11.75;;;8.15;;
49610;SDS011;35515;48.766;9.176;2023-04-06T10:51:24;10.10;;;8.05;;
49610;SDS011;35515;48.766;9.176;2023-04-06T10:53:53;13.32;;;7.63;;
49610;SDS011;35515;48.766;9.176;2023-04-06T10:56:21;10.05;;;7.50;;
49610;SDS011;35515;48.766;9.176;2023-04-06T10:58:51;12.38;;;8.10;;
49610;SDS011;35515;48.766;9.176;2023-04-06T11:01:23;10.07;;;7.13;;
49610;SDS011;35515;48.766;9.176;2023-04-06T11:03:52;18.25;;;8.00;;
49610;SDS011;35515;48.766;9.176;2023-04-06T11:06:19;11.13;;;7.90;;
49610;SDS011;35515;48.766;9.176;2023-04-06T11:08:47;11.93;;;7.53;;
49610;SDS011;35515;48.766;9.176;2023-04-06T11:11:14;11.40;;;7.88;;
49610;SDS011;35515;48.766;9.176;2023-04-06T11:13:44;10.20;;;7.47;;
49610;SDS011;35515;48.766;9.176;2023-04-06T11:16:12;9.68;;;7.22;;
49610;SDS011;35515;48.766;9.176;2023-04-06T11:18:48;11.10;;;7.10;;
49610;SDS011;35515;48.766;9.176;2023-04-06T11:21:16;9.70;;;7.13;;
49610;SDS011;35515;48.766;9.176;2023-04-06T11:23:43;10.18;;;7.05;;
49610;SDS011;35515;48.766;9.176;2023-04-06T11:26:10;13.15;;;8.80;;
49610;SDS011;35515;48.766;9.176;2023-04-06T11:28:37;12.75;;;8.43;;
49610;SDS011;35515;48.766;9.176;2023-04-06T11:31:05;11.25;;;7.90;;
49610;SDS011;35515;48.766;9.176;2023-04-06T11:33:34;9.52;;;7.13;;
49610;SDS011;35515;48.766;9.176;2023-04-06T11:36:03;9.80;;;6.90;;
49610;SDS011;35515;48.766;9.176;2023-04-06T11:38:30;10.10;;;6.68;;
49610;SDS011;35515;48.766;9.176;2023-04-06T11:40:57;10.60;;;7.00;;
49610;SDS011;35515;48.766;9.176;2023-04-06T11:43:26;11.00;;;6.82;;
49610;SDS011;35515;48.766;9.176;2023-04-06T11:45:58;11.32;;;7.15;;
49610;SDS011;35515;48.766;9.176;2023-04-06T11:48:26;9.85;;;6.85;;
49610;SDS011;35515;48.766;9.176;2023-04-06T11:50:55;9.65;;;6.88;;
49610;SDS011;35515;48.766;9.176;2023-04-06T11:53:23;11.52;;;7.00;;
49610;SDS011;35515;48.766;9.176;2023-04-06T11:55:50;10.93;;;6.80;;
49610;SDS011;35515;48.766;9.176;2023-04-06T11:58:17;9.07;;;6.45;;
49610;SDS011;35515;48.766;9.176;2023-04-06T12:00:44;8.88;;;6.50;;
49610;SDS011;35515;48.766;9.176;2023-04-06T12:03:11;11.50;;;6.90;;
49610;SDS011;35515;48.766;9.176;2023-04-06T12:05:38;12.00;;;7.80;;
49610;SDS011;35515;48.766;9.176;2023-04-06T12:08:05;11.43;;;7.38;;
49610;SDS011;35515;48.766;9.176;2023-04-06T12:10:33;11.00;;;6.88;;
49610;SDS011;35515;48.766;9.176;2023-04-06T12:13:00;10.98;;;6.45;;
49610;SDS011;35515;48.766;9.176;2023-04-06T12:15:27;9.10;;;6.70;;
49610;SDS011;35515;48.766;9.176;2023-04-06T12:17:54;10.82;;;7.65;;
49610;SDS011;35515;48.766;9.176;2023-04-06T12:20:28;10.35;;;6.55;;
49610;SDS011;35515;48.766;9.176;2023-04-06T12:22:55;8.85;;;6.32;;
49610;SDS011;35515;48.766;9.176;2023-04-06T12:25:22;9.48;;;6.50;;
49610;SDS011;35515;48.766;9.176;2023-04-06T12:27:50;9.40;;;6.07;;
49610;SDS011;35515;48.766;9.176;2023-04-06T12:30:16;11.00;;;7.30;;
49610;SDS011;35515;48.766;9.176;2023-04-06T12:32:43;8.20;;;6.50;;
49610;SDS011;35515;48.766;9.176;2023-04-06T12:35:10;10.20;;;6.70;;
49610;SDS011;35515;48.766;9.176;2023-04-06T12:37:40;18.47;;;12.53;;
49610;SDS011;35515;48.766;9.176;2023-04-06T12:40:07;18.58;;;12.95;;
49610;SDS011;35515;48.766;9.176;2023-04-06T12:42:38;14.10;;;8.45;;
49610;SDS011;35515;48.766;9.176;2023-04-06T12:45:07;9.27;;;6.57;;
49610;SDS011;35515;48.766;9.176;2023-04-06T12:47:34;9.55;;;6.68;;
49610;SDS011;35515;48.766;9.176;2023-04-06T12:50:02;9.40;;;6.90;;
49610;SDS011;35515;48.766;9.176;2023-04-06T12:52:30;8.73;;;5.95;;
49610;SDS011;35515;48.766;9.176;2023-04-06T12:55:00;11.00;;;6.43;;
49610;SDS011;35515;48.766;9.176;2023-04-06T12:57:26;12.32;;;6.03;;
49610;SDS011;35515;48.766;9.176;2023-04-06T12:59:53;11.00;;;6.63;;
49610;SDS011;35515;48.766;9.176;2023-04-06T13:02:21;8.45;;;5.97;;
49610;SDS011;35515;48.766;9.176;2023-04-06T13:04:48;8.38;;;6.15;;
49610;SDS011;35515;48.766;9.176;2023-04-06T13:07:15;11.57;;;6.45;;
49610;SDS011;35515;48.766;9.176;2023-04-06T13:09:42;11.60;;;6.78;;
49610;SDS011;35515;48.766;9.176;2023-04-06T13:12:08;8.80;;;6.10;;
49610;SDS011;35515;48.766;9.176;2023-04-06T13:14:35;11.07;;;6.25;;
49610;SDS011;35515;48.766;9.176;2023-04-06T13:17:02;8.25;;;6.13;;
49610;SDS011;35515;48.766;9.176;2023-04-06T13:19:30;12.18;;;6.47;;
49610;SDS011;35515;48.766;9.176;2023-04-06T13:21:57;9.05;;;6.32;;
49610;SDS011;35515;48.766;9.176;2023-04-06T13:24:24;9.48;;;6.32;;
49610;SDS011;35515;48.766;9.176;2023-04-06T13:26:50;10.32;;;6.10;;
49610;SDS011;35515;48.766;9.176;2023-04-06T13:29:17;9.40;;;5.90;;
49610;SDS011;35515;48.766;9.176;2023-04-06T13:31:43;10.82;;;6.88;;
49610;SDS011;35515;48.766;9.176;2023-04-06T13:34:10;10.00;;;6.75;;
49610;SDS011;35515;48.766;9.176;2023-04-06T13:36:38;8.80;;;5.85;;
49610;SDS011;35515;48.766;9.176;2023-04-06T13:39:06;10.48;;;6.80;;
49610;SDS011;35515;48.766;9.176;2023-04-06T13:41:33;8.35;;;5.88;;
49610;SDS011;35515;48.766;9.176;2023-04-06T13:44:00;9.98;;;6.72;;
49610;SDS011;35515;48.766;9.176;2023-04-06T13:46:26;9.48;;;5.90;;
49610;SDS011;35515;48.766;9.176;2023-04-06T13:48:53;11.43;;;6.78;;
49610;SDS011;35515;48.766;9.176;2023-04-06T13:51:20;11.63;;;6.82;;
49610;SDS011;35515;48.766;9.176;2023-04-06T13:53:48;8.05;;;5.95;;
49610;SDS011;35515;48.766;9.176;2023-04-06T13:56:17;7.63;;;5.67;;
49610;SDS011;35515;48.766;9.176;2023-04-06T13:58:44;11.60;;;5.93;;
49610;SDS011;35515;48.766;9.176;2023-04-06T14:01:11;11.05;;;6.70;;
49610;SDS011;35515;48.766;9.176;2023-04-06T14:03:37;10.48;;;6.32;;
49610;SDS011;35515;48.766;9.176;2023-04-06T14:06:10;9.27;;;6.47;;
49610;SDS011;35515;48.766;9.176;2023-04-06T14:08:37;8.95;;;5.95;;
49610;SDS011;35515;48.766;9.176;2023-04-06T14:11:05;11.00;;;6.18;;
49610;SDS011;35515;48.766;9.176;2023-04-06T14:13:33;10.60;;;6.30;;
49610;SDS011;35515;48.766;9.176;2023-04-06T14:16:00;8.40;;;5.82;;
49610;SDS011;35515;48.766;9.176;2023-04-06T14:18:26;9.00;;;6.13;;
49610;SDS011;35515;48.766;9.176;2023-04-06T14:20:56;8.35;;;5.70;;
49610;SDS011;35515;48.766;9.176;2023-04-06T14:23:23;9.50;;;6.22;;
49610;SDS011;35515;48.766;9.176;2023-04-06T14:25:51;8.80;;;5.47;;
49610;SDS011;35515;48.766;9.176;2023-04-06T14:28:20;10.27;;;6.05;;
49610;SDS011;35515;48.766;9.176;2023-04-06T14:30:47;10.20;;;6.72;;